8MA4 weather

Crow Island Airport (Pvt)
Stow, Massachusetts, United States

Public forecast

Using degrees Fahrenheit for public forecast. Weather courtesy of forecast.io.

Closest aviation weather report (METAR) to Crow Island Airport (Pvt)

Closest report is Laurence G Hanscom Field, 9.6 nm (17.9 km) ENE. Retrieved 2020/01/29 13:51 UTC (32 minutes ago):

KBED 291351Z 32009KT 10SM CLR 00/M09 A2999 RMK AO2 SLP172 T00001094

Closest aviation forecast (TAF) to Crow Island Airport (Pvt)

Closest forecast is Laurence G Hanscom Field, 9.6 nm (17.9 km) ENE. Retrieved 2020/01/29 12:27 UTC (2 hours ago):

TAF KBED 291122Z 2912/3012 32009KT P6SM BKN035 FM291230 33009KT P6SM SCT035 FM300300 35006KT P6SM SKC